Pickle Lake Airport
CYPL : now visible

Airfield :











YOU CAN JOIN US ON...

 
LOGIN :

Register | Disclaimer

   EN    FR    IT 

 









Legend :    VFR   Marginal VFR   IFR   Intensive IFR   Very Intensive IFR
Visi :
Ceiling :
>= 8 km
>= 3000ft
5 to 8 km
1000 to 3000 ft
1500m to 5 km
500 to 1000 ft
800 to 1500m
200 to 500 ft
< 800m
< 200 ft
Symbols :   Thunderstorms  Fog  Heavy snow  Heavy precipitations  Wind > 20 kt






- Airport Elevation : 1267 ft
- IATA code : YPL


CYPL - Pickle Lake

CURRENT METAR :
  • 172000Z AUTO 16010KT 9SM OVC095 M16/M19 A3040 RMK SLP347

EXPIRED METARs :
  • 171900Z AUTO 17009G16KT 9SM OVC100 M17/M21 A3044 RMK SLP358
  • 171800Z AUTO 16008KT 9SM BKN100 BKN120 M19/M23 A3048 RMK SLP373

TAF TAF CYPL
Valid from the 17 at 20:00 until the 18 at 08:00 UTC


171939Z 1720/1808 18005KT P6SM OVC130
FM180000 14010KT P6SM -SN OVC030
TEMPO 1800/1805 4SM -SN OVC015
FM180500 15010KT 11/2SM -SN OVC008 RMK FCST BASED ON AUTO OBS. NXT FCST BY 180200Z



MET'MAP, your aeronautical weather chart ! - Copyright ORBIFLY December 2007 - Disclaimer

ORBIFLY MET'MAP TEAM :

Programming & Development : Alexandra Zaïnal
Concept & original design : Baudouin d'Aumeries
Assistance for programming : Marc-Olivier Méhu
Technical & hardware support : Manuel Goepfert

Contact : metmap@orbifly.com




SOURCES & CREDITS :

   NOAA       Earth
Advisory